createdAt,value
2018-06-29T00:00:14.345Z,74.62
2018-06-29T00:01:14.347Z,73.75
2018-06-29T00:02:14.345Z,72.69
2018-06-29T00:03:14.349Z,73.57
2018-06-29T00:04:35.359Z,73.27
2018-06-29T00:05:14.353Z,73.57
2018-06-29T00:06:14.349Z,72.41
2018-06-29T00:07:14.355Z,72.79
2018-06-29T00:08:14.355Z,72.79
2018-06-29T00:09:14.354Z,73.18
2018-06-29T00:10:35.367Z,73.27
2018-06-29T00:11:14.355Z,73.66
2018-06-29T00:12:14.356Z,73.18
2018-06-29T00:13:14.361Z,73.08
2018-06-29T00:14:14.363Z,73.08
2018-06-29T00:15:14.365Z,73.37
2018-06-29T00:16:35.435Z,72.41
2018-06-29T00:17:14.363Z,72.12
2018-06-29T00:18:14.366Z,72.79
2018-06-29T00:19:14.369Z,73.75
2018-06-29T00:20:14.580Z,73.57
2018-06-29T00:21:14.372Z,73.47
2018-06-29T00:22:35.389Z,73.08
2018-06-29T00:23:14.370Z,72.60
2018-06-29T00:24:14.379Z,72.50
2018-06-29T00:25:14.962Z,72.69
2018-06-29T00:26:14.379Z,73.08
2018-06-29T00:27:14.380Z,75.68
2018-06-29T00:28:35.397Z,76.17
2018-06-29T00:29:14.381Z,75.68
2018-06-29T00:30:14.384Z,75.20
2018-06-29T00:31:14.383Z,75.30
2018-06-29T00:32:14.383Z,75.40
2018-06-29T00:33:14.384Z,76.07
2018-06-29T00:34:35.402Z,76.71
2018-06-29T00:35:14.393Z,77.19
2018-06-29T00:36:14.390Z,75.84
2018-06-29T00:37:14.388Z,75.84
2018-06-29T00:38:14.390Z,75.84
2018-06-29T00:39:14.397Z,76.80
2018-06-29T00:40:35.403Z,76.13
2018-06-29T00:41:14.396Z,77.09
2018-06-29T00:42:14.400Z,77.58
2018-06-29T00:43:14.404Z,76.80
2018-06-29T00:44:14.399Z,74.49
2018-06-29T00:45:14.402Z,74.40
2018-06-29T00:46:35.411Z,76.03
2018-06-29T00:47:14.403Z,76.51
2018-06-29T00:48:14.404Z,77.48
2018-06-29T00:49:14.408Z,77.67
2018-06-29T00:50:14.408Z,77.86
2018-06-29T00:51:14.408Z,78.63
2018-06-29T00:52:35.417Z,79.02
2018-06-29T00:53:14.411Z,78.73
2018-06-29T00:54:14.413Z,77.09
2018-06-29T00:55:14.417Z,76.42
2018-06-29T00:56:14.416Z,77.28
2018-06-29T00:57:14.413Z,77.96
2018-06-29T00:58:35.426Z,77.48
2018-06-29T00:59:14.417Z,78.63
2018-06-29T01:00:14.421Z,79.60
2018-06-29T01:01:14.418Z,78.92
2018-06-29T01:02:14.419Z,76.23
2018-06-29T01:03:14.423Z,77.00
2018-06-29T01:04:35.431Z,77.67
2018-06-29T01:05:14.423Z,77.28
2018-06-29T01:06:14.424Z,78.54
2018-06-29T01:07:14.425Z,77.67
2018-06-29T01:08:14.489Z,77.09
2018-06-29T01:09:14.426Z,76.42
2018-06-29T01:10:35.438Z,75.45
2018-06-29T01:11:14.429Z,74.88
2018-06-29T01:12:14.428Z,75.36
2018-06-29T01:13:14.430Z,76.42
2018-06-29T01:14:14.434Z,76.71
2018-06-29T01:15:14.433Z,78.15
2018-06-29T01:16:35.443Z,79.11
2018-06-29T01:17:14.435Z,77.67
2018-06-29T01:18:14.433Z,76.90
2018-06-29T01:19:14.438Z,76.61
2018-06-29T01:20:14.438Z,76.42
2018-06-29T01:21:14.438Z,79.21
2018-06-29T01:22:35.449Z,77.09
2018-06-29T01:23:14.439Z,77.19
2018-06-29T01:24:14.442Z,77.38
2018-06-29T01:25:14.445Z,79.11
2018-06-29T01:26:14.446Z,78.06
2018-06-29T01:27:14.446Z,77.38
2018-06-29T01:28:35.516Z,77.96
2018-06-29T01:29:14.447Z,77.58
2018-06-29T01:30:14.450Z,77.76
2018-06-29T01:31:14.451Z,78.63
2018-06-29T01:32:14.455Z,80.27
2018-06-29T01:33:14.449Z,78.54
2018-06-29T01:34:35.464Z,79.69
2018-06-29T01:35:14.456Z,78.92
2018-06-29T01:36:14.455Z,77.96
2018-06-29T01:37:14.457Z,76.23
2018-06-29T01:38:14.458Z,77.00
2018-06-29T01:39:14.459Z,75.93
2018-06-29T01:40:35.468Z,75.93
2018-06-29T01:41:14.461Z,78.92
2018-06-29T01:42:14.467Z,76.51
2018-06-29T01:43:14.461Z,77.76
2018-06-29T01:44:14.463Z,76.03
2018-06-29T01:45:14.464Z,79.41
2018-06-29T01:46:35.473Z,78.92
2018-06-29T01:47:14.472Z,79.69
2018-06-29T01:48:14.464Z,79.50
2018-06-29T01:49:14.463Z,78.44
2018-06-29T01:50:14.470Z,76.61
2018-06-29T01:51:14.471Z,77.67
2018-06-29T01:52:35.505Z,76.90
2018-06-29T01:53:14.469Z,78.15
2018-06-29T01:54:14.469Z,78.15
2018-06-29T01:55:14.475Z,77.48
2018-06-29T01:56:14.475Z,75.84
2018-06-29T01:57:14.476Z,77.38
2018-06-29T01:58:35.488Z,77.96
2018-06-29T01:59:14.478Z,77.38
2018-06-29T02:00:14.480Z,77.09
2018-06-29T02:01:14.495Z,77.48
2018-06-29T02:02:14.479Z,76.51
2018-06-29T02:03:14.480Z,77.38
2018-06-29T02:04:35.491Z,77.76
2018-06-29T02:05:14.484Z,78.73
2018-06-29T02:06:14.487Z,77.76
2018-06-29T02:07:14.487Z,78.34
2018-06-29T02:08:14.491Z,79.41
2018-06-29T02:09:14.484Z,78.73
2018-06-29T02:10:35.504Z,78.54
2018-06-29T02:11:14.502Z,77.58
2018-06-29T02:12:14.493Z,77.09
2018-06-29T02:13:14.506Z,76.61
2018-06-29T02:14:14.498Z,76.90
2018-06-29T02:15:14.494Z,76.61
2018-06-29T02:16:35.504Z,75.65
2018-06-29T02:17:14.495Z,75.93
2018-06-29T02:18:14.497Z,75.74
2018-06-29T02:19:14.500Z,76.71
2018-06-29T02:20:14.496Z,75.65
2018-06-29T02:21:14.500Z,76.90
2018-06-29T02:22:35.522Z,77.67
2018-06-29T02:23:14.496Z,77.28
2018-06-29T02:24:14.505Z,77.28
2018-06-29T02:25:14.507Z,76.61
2018-06-29T02:26:14.505Z,77.38
2018-06-29T02:27:14.507Z,77.86
2018-06-29T02:28:35.516Z,78.54
2018-06-29T02:29:14.510Z,77.19
2018-06-29T02:30:14.543Z,77.19
2018-06-29T02:31:14.510Z,77.76
2018-06-29T02:32:14.513Z,77.48
2018-06-29T02:33:14.513Z,77.67
2018-06-29T02:34:35.519Z,77.19
2018-06-29T02:35:14.513Z,76.90
2018-06-29T02:36:14.517Z,77.48
2018-06-29T02:37:14.545Z,77.09
2018-06-29T02:38:14.519Z,77.48
2018-06-29T02:39:14.519Z,77.96
2018-06-29T02:40:35.540Z,78.73
2018-06-29T02:41:14.520Z,77.48
2018-06-29T02:42:14.527Z,78.63
2018-06-29T02:43:14.528Z,78.63
2018-06-29T02:44:14.518Z,78.34
2018-06-29T02:45:14.529Z,76.51
2018-06-29T02:46:35.535Z,76.61
2018-06-29T02:47:14.525Z,77.19
2018-06-29T02:48:14.528Z,75.74
2018-06-29T02:49:14.533Z,75.55
2018-06-29T02:50:14.526Z,74.88
2018-06-29T02:51:14.533Z,74.49
2018-06-29T02:52:35.536Z,74.40
2018-06-29T02:53:14.524Z,74.10
2018-06-29T02:54:14.534Z,74.01
2018-06-29T02:55:14.545Z,73.53
2018-06-29T02:56:14.532Z,73.53
2018-06-29T02:57:14.534Z,73.05
2018-06-29T02:58:35.543Z,73.53
2018-06-29T02:59:14.543Z,73.43
2018-06-29T03:00:14.533Z,72.27
2018-06-29T03:01:14.539Z,71.98
2018-06-29T03:02:14.539Z,71.79
2018-06-29T03:03:14.539Z,72.18
2018-06-29T03:04:35.541Z,71.60
2018-06-29T03:05:14.555Z,71.89
2018-06-29T03:06:14.540Z,70.35
2018-06-29T03:07:14.538Z,71.12
2018-06-29T03:08:14.541Z,70.25
2018-06-29T03:09:14.545Z,70.44
2018-06-29T03:10:35.548Z,70.28
2018-06-29T03:11:14.540Z,69.51
2018-06-29T03:12:14.542Z,69.38
2018-06-29T03:13:14.543Z,69.42
2018-06-29T03:14:14.546Z,69.90
2018-06-29T03:15:14.546Z,69.23
2018-06-29T03:16:35.555Z,69.42
2018-06-29T03:17:14.547Z,68.93
2018-06-29T03:18:14.546Z,68.93
2018-06-29T03:19:14.548Z,69.13
2018-06-29T03:20:14.550Z,69.42
2018-06-29T03:21:14.549Z,68.84
2018-06-29T03:22:35.558Z,68.93
2018-06-29T03:23:14.547Z,68.65
2018-06-29T03:24:14.551Z,68.65
2018-06-29T03:25:14.618Z,67.88
2018-06-29T03:26:14.552Z,68.65
2018-06-29T03:27:14.553Z,67.30
2018-06-29T03:28:35.564Z,67.58
2018-06-29T03:29:14.554Z,67.49
2018-06-29T03:30:14.556Z,68.16
2018-06-29T03:31:14.558Z,67.49
2018-06-29T03:32:16.440Z,67.58
2018-06-29T03:33:14.555Z,67.20
2018-06-29T03:34:35.566Z,67.00
2018-06-29T03:35:14.556Z,67.58
2018-06-29T03:36:14.558Z,66.72
2018-06-29T03:37:14.560Z,67.40
2018-06-29T03:38:14.557Z,67.30
2018-06-29T03:39:14.559Z,67.20
2018-06-29T03:40:35.687Z,67.20
2018-06-29T03:41:14.557Z,67.00
2018-06-29T03:42:14.575Z,66.72
2018-06-29T03:43:14.561Z,67.00
2018-06-29T03:44:14.564Z,66.14
2018-06-29T03:45:14.564Z,65.85
2018-06-29T03:46:35.572Z,66.27
2018-06-29T03:47:14.565Z,67.33
2018-06-29T03:48:14.566Z,66.36
2018-06-29T03:49:14.565Z,67.00
2018-06-29T03:50:14.568Z,66.82
2018-06-29T03:51:14.565Z,66.46
2018-06-29T03:52:35.577Z,66.66
2018-06-29T03:53:14.567Z,66.72
2018-06-29T03:54:14.568Z,67.10
2018-06-29T03:55:14.572Z,67.10
2018-06-29T03:56:14.572Z,66.14
2018-06-29T03:57:14.573Z,66.43
2018-06-29T03:58:35.587Z,68.26
2018-06-29T03:59:14.574Z,67.58
2018-06-29T04:00:14.601Z,67.20
2018-06-29T04:01:14.578Z,67.49
2018-06-29T04:02:14.577Z,66.82
2018-06-29T04:03:14.625Z,67.40
2018-06-29T04:04:35.586Z,67.30
2018-06-29T04:05:14.583Z,67.20
2018-06-29T04:06:14.579Z,67.10
2018-06-29T04:07:14.580Z,66.72
2018-06-29T04:08:14.578Z,67.20
2018-06-29T04:09:14.579Z,66.62
2018-06-29T04:10:35.589Z,67.20
2018-06-29T04:11:14.581Z,67.40
2018-06-29T04:12:14.582Z,66.62
2018-06-29T04:13:14.589Z,67.68
2018-06-29T04:14:14.583Z,65.66
2018-06-29T04:15:14.587Z,65.78
2018-06-29T04:16:35.591Z,65.69
2018-06-29T04:17:14.661Z,65.88
2018-06-29T04:18:14.590Z,65.69
2018-06-29T04:19:14.588Z,65.78
2018-06-29T04:20:14.588Z,66.27
2018-06-29T04:21:14.589Z,65.50
2018-06-29T04:22:35.595Z,65.50
2018-06-29T04:23:14.590Z,65.69
2018-06-29T04:24:14.591Z,65.78
2018-06-29T04:25:14.592Z,65.40
2018-06-29T04:26:14.591Z,66.66
2018-06-29T04:27:14.592Z,66.66
2018-06-29T04:28:35.610Z,67.10
2018-06-29T04:29:14.593Z,65.69
2018-06-29T04:30:14.595Z,65.01
2018-06-29T04:31:14.596Z,65.69
2018-06-29T04:32:14.594Z,65.20
2018-06-29T04:33:14.593Z,65.50
2018-06-29T04:34:35.605Z,65.30
2018-06-29T04:35:14.598Z,65.50
2018-06-29T04:36:14.597Z,66.66
2018-06-29T04:37:14.596Z,66.36
2018-06-29T04:38:14.600Z,65.88
2018-06-29T04:39:14.597Z,66.66
2018-06-29T04:40:35.607Z,65.78
2018-06-29T04:41:14.597Z,65.20
2018-06-29T04:42:14.597Z,65.30
2018-06-29T04:43:14.597Z,65.88
2018-06-29T04:44:14.601Z,66.56
2018-06-29T04:45:14.600Z,65.98
2018-06-29T04:46:35.609Z,65.30
2018-06-29T04:47:14.603Z,65.01
2018-06-29T04:48:14.603Z,65.20
2018-06-29T04:49:14.657Z,65.50
2018-06-29T04:50:14.612Z,65.01
2018-06-29T04:51:14.608Z,64.43
2018-06-29T04:52:35.617Z,64.43
2018-06-29T04:53:14.635Z,63.85
2018-06-29T04:54:14.606Z,64.15
2018-06-29T04:55:14.609Z,64.43
2018-06-29T04:56:14.605Z,63.67
2018-06-29T04:57:14.604Z,64.15
2018-06-29T04:58:35.619Z,65.20
2018-06-29T04:59:14.630Z,64.92
2018-06-29T05:00:14.609Z,66.08
2018-06-29T05:01:14.609Z,65.20
2018-06-29T05:02:14.607Z,65.30
2018-06-29T05:03:14.641Z,65.40
2018-06-29T05:04:35.620Z,65.40
2018-06-29T05:05:14.611Z,65.20
2018-06-29T05:06:14.612Z,64.72
2018-06-29T05:07:14.613Z,64.15
2018-06-29T05:08:14.613Z,64.15
2018-06-29T05:09:14.612Z,63.18
2018-06-29T05:10:35.626Z,63.70
2018-06-29T05:11:14.617Z,64.05
2018-06-29T05:12:14.615Z,62.82
2018-06-29T05:13:14.613Z,63.37
2018-06-29T05:14:14.615Z,63.50
2018-06-29T05:15:14.616Z,63.60
2018-06-29T05:16:35.623Z,65.34
2018-06-29T05:17:14.662Z,66.49
2018-06-29T05:18:14.618Z,66.11
2018-06-29T05:19:14.619Z,65.11
2018-06-29T05:20:14.622Z,66.27
2018-06-29T05:21:14.621Z,65.59
2018-06-29T05:22:35.675Z,64.72
2018-06-29T05:23:14.620Z,65.88
2018-06-29T05:24:14.634Z,65.88
2018-06-29T05:25:14.624Z,65.50
2018-06-29T05:26:14.622Z,65.40
2018-06-29T05:27:14.660Z,65.40
2018-06-29T05:28:35.682Z,66.56
2018-06-29T05:29:14.628Z,66.75
2018-06-29T05:30:14.627Z,65.20
2018-06-29T05:31:14.630Z,66.08
2018-06-29T05:32:15.481Z,67.14
2018-06-29T05:33:14.627Z,66.85
2018-06-29T05:34:35.641Z,66.75
2018-06-29T05:35:14.635Z,65.98
2018-06-29T05:36:14.635Z,65.40
2018-06-29T05:37:14.631Z,67.43
2018-06-29T05:38:14.632Z,66.85
2018-06-29T05:39:14.639Z,66.66
2018-06-29T05:40:35.655Z,67.14
2018-06-29T05:41:14.641Z,68.19
2018-06-29T05:42:14.640Z,66.46
2018-06-29T05:43:14.636Z,66.17
2018-06-29T05:44:14.642Z,66.46
2018-06-29T05:45:14.643Z,67.14
2018-06-29T05:46:35.654Z,68.49
2018-06-29T05:47:14.642Z,67.04
2018-06-29T05:48:14.646Z,67.33
2018-06-29T05:49:14.667Z,67.33
2018-06-29T05:50:14.654Z,66.85
2018-06-29T05:51:14.652Z,66.66
2018-06-29T05:52:35.662Z,67.04
2018-06-29T05:53:14.656Z,66.27
2018-06-29T05:54:14.650Z,66.66
2018-06-29T05:55:14.658Z,65.88
2018-06-29T05:56:14.655Z,66.08
2018-06-29T05:57:14.653Z,65.72
2018-06-29T05:58:35.669Z,67.36
2018-06-29T05:59:14.658Z,65.24
2018-06-29T06:00:14.658Z,65.24
2018-06-29T06:01:14.661Z,66.59
2018-06-29T06:02:14.662Z,65.43
2018-06-29T06:03:14.673Z,65.63
2018-06-29T06:04:35.758Z,66.01
2018-06-29T06:05:14.664Z,65.91
2018-06-29T06:06:14.665Z,64.37
2018-06-29T06:07:14.665Z,67.07
2018-06-29T06:08:14.668Z,64.76
2018-06-29T06:09:14.669Z,64.28
2018-06-29T06:10:35.679Z,65.85
2018-06-29T06:11:14.672Z,67.11
2018-06-29T06:12:14.677Z,70.29
2018-06-29T06:13:14.704Z,67.40
2018-06-29T06:14:14.679Z,68.84
2018-06-29T06:15:14.683Z,67.69
2018-06-29T06:16:35.708Z,66.05
2018-06-29T06:17:14.680Z,67.20
2018-06-29T06:18:14.680Z,67.11
2018-06-29T06:19:14.683Z,66.63
2018-06-29T06:20:14.684Z,67.62
2018-06-29T06:21:14.684Z,67.52
2018-06-29T06:22:35.697Z,65.50
2018-06-29T06:23:14.688Z,64.43
2018-06-29T06:24:14.720Z,65.30
2018-06-29T06:25:14.691Z,63.56
2018-06-29T06:26:14.703Z,63.76
2018-06-29T06:27:14.695Z,64.05
2018-06-29T06:28:35.705Z,62.40
2018-06-29T06:29:14.696Z,63.66
2018-06-29T06:30:14.699Z,65.59
2018-06-29T06:31:14.702Z,67.14
2018-06-29T06:32:14.703Z,67.33
2018-06-29T06:33:14.735Z,64.34
2018-06-29T06:34:35.713Z,65.69
2018-06-29T06:35:14.710Z,66.08
2018-06-29T06:36:14.711Z,64.34
2018-06-29T06:37:14.707Z,63.95
2018-06-29T06:38:14.712Z,63.18
2018-06-29T06:39:14.721Z,62.50
2018-06-29T06:40:35.726Z,62.70
2018-06-29T06:41:14.717Z,63.08
2018-06-29T06:42:14.721Z,63.50
2018-06-29T06:43:14.723Z,64.56
2018-06-29T06:44:14.724Z,66.59
2018-06-29T06:45:14.724Z,63.79
2018-06-29T06:46:35.738Z,63.89
2018-06-29T06:47:14.734Z,65.43
2018-06-29T06:48:14.729Z,66.69
2018-06-29T06:49:14.743Z,65.34
2018-06-29T06:50:14.733Z,65.53
2018-06-29T06:51:14.737Z,64.95
2018-06-29T06:52:35.756Z,64.08
2018-06-29T06:53:14.735Z,65.82
2018-06-29T06:54:14.740Z,65.59
2018-06-29T06:55:14.744Z,64.47
2018-06-29T06:56:14.746Z,63.89
2018-06-29T06:57:14.747Z,63.98
2018-06-29T06:58:35.757Z,63.98
2018-06-29T06:59:14.747Z,65.53
2018-06-29T07:00:14.752Z,63.95
2018-06-29T07:01:14.752Z,64.82
2018-06-29T07:02:14.758Z,64.63
2018-06-29T07:03:15.511Z,65.30
2018-06-29T07:04:35.767Z,65.98
2018-06-29T07:05:14.758Z,65.50
2018-06-29T07:06:14.772Z,64.24
2018-06-29T07:07:14.768Z,64.14
2018-06-29T07:08:14.767Z,62.31
2018-06-29T07:09:14.766Z,63.56
2018-06-29T07:10:35.895Z,64.63
2018-06-29T07:11:14.781Z,64.66
2018-06-29T07:12:14.772Z,64.76
2018-06-29T07:13:14.773Z,65.72
2018-06-29T07:14:14.778Z,63.40
2018-06-29T07:15:14.778Z,64.18
2018-06-29T07:16:35.789Z,63.89
2018-06-29T07:17:14.782Z,62.63
2018-06-29T07:18:14.794Z,62.82
2018-06-29T07:19:14.788Z,62.24
2018-06-29T07:20:14.792Z,61.27
2018-06-29T07:21:14.789Z,59.66
2018-06-29T07:22:35.801Z,61.02
2018-06-29T07:23:14.793Z,61.79
2018-06-29T07:24:14.794Z,61.21
2018-06-29T07:25:14.801Z,62.95
2018-06-29T07:26:14.798Z,62.47
2018-06-29T07:27:14.796Z,60.82
2018-06-29T07:28:35.816Z,61.89
2018-06-29T07:29:14.802Z,60.44
2018-06-29T07:30:14.837Z,60.72
2018-06-29T07:31:14.806Z,61.98
2018-06-29T07:32:14.810Z,59.66
2018-06-29T07:33:14.821Z,59.38
2018-06-29T07:34:35.833Z,61.21
2018-06-29T07:35:14.814Z,62.27
2018-06-29T07:36:14.819Z,62.79
2018-06-29T07:37:14.817Z,59.69
2018-06-29T07:38:14.819Z,62.59
2018-06-29T07:39:14.822Z,59.69
2018-06-29T07:40:35.835Z,60.37
2018-06-29T07:41:14.820Z,58.72
2018-06-29T07:42:14.825Z,57.76
2018-06-29T07:43:14.830Z,57.50
2018-06-29T07:44:14.832Z,56.92
2018-06-29T07:45:14.844Z,58.56
2018-06-29T07:46:35.848Z,57.30
2018-06-29T07:47:14.841Z,56.92
2018-06-29T07:48:14.837Z,57.69
2018-06-29T07:49:14.837Z,57.40
2018-06-29T07:50:14.844Z,58.65
2018-06-29T07:51:14.846Z,56.65
2018-06-29T07:52:35.857Z,55.58
2018-06-29T07:53:14.848Z,56.46
2018-06-29T07:54:14.853Z,57.43
2018-06-29T07:55:14.853Z,57.91
2018-06-29T07:56:14.860Z,57.23
2018-06-29T07:57:14.870Z,58.69
2018-06-29T07:58:35.905Z,56.65
2018-06-29T07:59:14.860Z,55.58
2018-06-29T08:00:14.866Z,55.40
2018-06-29T08:01:14.879Z,57.81
2018-06-29T08:02:14.869Z,58.01
2018-06-29T08:03:14.869Z,57.33
2018-06-29T08:04:35.880Z,55.49
2018-06-29T08:05:14.877Z,56.16
2018-06-29T08:06:14.875Z,56.46
2018-06-29T08:07:14.881Z,58.98
2018-06-29T08:08:14.880Z,55.78
2018-06-29T08:09:14.889Z,56.56
2018-06-29T08:10:35.906Z,56.26
2018-06-29T08:11:14.887Z,56.26
2018-06-29T08:12:14.888Z,54.71
2018-06-29T08:13:14.895Z,54.81
2018-06-29T08:14:14.896Z,56.10
2018-06-29T08:15:14.899Z,53.87
2018-06-29T08:16:35.907Z,55.13
2018-06-29T08:17:14.906Z,53.77
2018-06-29T08:18:14.904Z,53.22
2018-06-29T08:19:14.911Z,52.25
2018-06-29T08:20:14.904Z,52.83
2018-06-29T08:21:14.918Z,51.86
2018-06-29T08:22:35.922Z,51.47
2018-06-29T08:23:14.943Z,52.34
2018-06-29T08:24:14.967Z,51.96
2018-06-29T08:25:14.920Z,53.31
2018-06-29T08:26:14.917Z,53.89
2018-06-29T08:27:14.922Z,52.25
2018-06-29T08:28:35.938Z,53.99
2018-06-29T08:29:14.930Z,53.31
2018-06-29T08:30:14.928Z,53.22
2018-06-29T08:31:14.932Z,51.86
2018-06-29T08:32:14.935Z,52.34
2018-06-29T08:33:14.938Z,52.25
2018-06-29T08:34:35.953Z,53.22
2018-06-29T08:35:14.947Z,53.61
2018-06-29T08:36:14.946Z,53.53
2018-06-29T08:37:14.944Z,54.02
2018-06-29T08:38:14.950Z,52.44
2018-06-29T08:39:14.956Z,52.15
2018-06-29T08:40:35.972Z,52.18
2018-06-29T08:41:14.958Z,53.34
2018-06-29T08:42:14.966Z,52.47
2018-06-29T08:43:14.962Z,51.76
2018-06-29T08:44:14.995Z,51.40
2018-06-29T08:45:15.031Z,52.37
2018-06-29T08:46:35.983Z,54.21
2018-06-29T08:47:14.976Z,54.90
2018-06-29T08:48:14.979Z,53.24
2018-06-29T08:49:14.981Z,51.98
2018-06-29T08:50:14.981Z,52.76
2018-06-29T08:51:14.987Z,52.11
2018-06-29T08:52:35.999Z,52.30
2018-06-29T08:53:14.994Z,51.53
2018-06-29T08:54:14.995Z,51.81
2018-06-29T08:55:14.999Z,55.02
2018-06-29T08:56:15.004Z,53.95
2018-06-29T08:57:15.005Z,50.94
2018-06-29T08:58:36.019Z,51.91
2018-06-29T08:59:15.015Z,51.91
2018-06-29T09:00:15.015Z,53.08
2018-06-29T09:01:15.019Z,53.56
2018-06-29T09:02:15.017Z,51.91
2018-06-29T09:03:15.023Z,51.72
2018-06-29T09:04:36.036Z,51.62
2018-06-29T09:05:15.030Z,50.36
2018-06-29T09:06:15.032Z,49.61
2018-06-29T09:07:15.036Z,50.58
2018-06-29T09:08:15.040Z,51.65
2018-06-29T09:09:15.042Z,51.75
2018-06-29T09:10:36.053Z,51.16
2018-06-29T09:11:15.048Z,49.32
2018-06-29T09:12:15.054Z,49.12
2018-06-29T09:13:15.054Z,49.02
2018-06-29T09:14:15.056Z,52.13
2018-06-29T09:15:15.063Z,49.90
2018-06-29T09:16:36.073Z,50.68
2018-06-29T09:17:15.068Z,50.96
2018-06-29T09:18:15.072Z,50.09
2018-06-29T09:19:15.072Z,49.32
2018-06-29T09:20:15.075Z,50.96
2018-06-29T09:21:15.074Z,52.33
2018-06-29T09:22:36.095Z,52.45
2018-06-29T09:23:15.084Z,49.63
2018-06-29T09:24:15.136Z,48.95
2018-06-29T09:25:15.090Z,50.92
2018-06-29T09:26:15.096Z,50.82
2018-06-29T09:27:15.096Z,49.66
2018-06-29T09:28:36.110Z,49.46
2018-06-29T09:29:15.101Z,49.37
2018-06-29T09:30:15.110Z,47.91
2018-06-29T09:31:15.155Z,49.46
2018-06-29T09:32:15.118Z,47.42
2018-06-29T09:33:15.117Z,46.62
2018-06-29T09:34:36.131Z,46.62
2018-06-29T09:35:15.129Z,47.49
2018-06-29T09:36:15.185Z,47.20
2018-06-29T09:37:15.130Z,47.11
2018-06-29T09:38:15.136Z,47.76
2018-06-29T09:39:15.135Z,48.73
2018-06-29T09:40:36.150Z,49.02
2018-06-29T09:41:15.145Z,49.51
2018-06-29T09:42:15.146Z,48.54
2018-06-29T09:43:15.148Z,49.02
2018-06-29T09:44:15.154Z,50.07
2018-06-29T09:45:15.152Z,50.74
2018-06-29T09:46:36.166Z,51.72
2018-06-29T09:47:15.159Z,50.74
2018-06-29T09:48:15.160Z,51.62
2018-06-29T09:49:15.170Z,50.74
2018-06-29T09:50:15.168Z,51.91
2018-06-29T09:51:15.171Z,50.36
2018-06-29T09:52:36.183Z,50.16
2018-06-29T09:53:15.177Z,50.74
2018-06-29T09:54:15.177Z,50.46
2018-06-29T09:55:15.182Z,51.91
2018-06-29T09:56:15.183Z,50.96
2018-06-29T09:57:15.186Z,50.16
2018-06-29T09:58:36.198Z,51.65
2018-06-29T09:59:15.190Z,51.16
2018-06-29T10:00:15.196Z,50.12
2018-06-29T10:01:15.295Z,49.24
2018-06-29T10:02:15.195Z,48.85
2018-06-29T10:03:15.202Z,49.15
2018-06-29T10:04:36.216Z,49.54
2018-06-29T10:05:15.210Z,49.46
2018-06-29T10:06:15.214Z,47.71
2018-06-29T10:07:15.213Z,47.42
2018-06-29T10:08:15.217Z,47.42
2018-06-29T10:09:15.218Z,48.03
2018-06-29T10:10:36.231Z,48.10
2018-06-29T10:11:15.226Z,47.15
2018-06-29T10:12:15.248Z,49.49
2018-06-29T10:13:15.225Z,47.64
2018-06-29T10:14:15.338Z,46.18
2018-06-29T10:15:15.236Z,46.08
2018-06-29T10:16:36.248Z,48.13
2018-06-29T10:17:15.240Z,47.74
2018-06-29T10:18:15.244Z,49.29
2018-06-29T10:19:15.250Z,46.28
2018-06-29T10:20:15.322Z,45.79
2018-06-29T10:21:15.255Z,45.01
2018-06-29T10:22:36.264Z,45.60
2018-06-29T10:23:15.258Z,44.53
2018-06-29T10:24:15.293Z,45.60
2018-06-29T10:25:15.324Z,46.08
2018-06-29T10:26:15.266Z,44.82
2018-06-29T10:27:15.292Z,46.37
2018-06-29T10:28:36.311Z,45.40
2018-06-29T10:29:15.272Z,45.14
2018-06-29T10:30:15.272Z,46.40
2018-06-29T10:31:15.281Z,45.91
2018-06-29T10:32:15.283Z,47.27
2018-06-29T10:33:15.281Z,45.74
2018-06-29T10:34:36.300Z,46.32
2018-06-29T10:35:15.289Z,45.54
2018-06-29T10:36:15.301Z,45.94
2018-06-29T10:37:15.297Z,45.94
2018-06-29T10:38:15.298Z,47.39
2018-06-29T10:39:15.300Z,47.88
2018-06-29T10:40:36.326Z,47.30
2018-06-29T10:41:15.309Z,46.81
2018-06-29T10:42:15.315Z,49.15
2018-06-29T10:43:15.311Z,47.96
2018-06-29T10:44:15.323Z,47.96
2018-06-29T10:45:15.321Z,45.32
2018-06-29T10:46:36.334Z,44.55
2018-06-29T10:47:15.328Z,44.55
2018-06-29T10:48:15.335Z,46.01
2018-06-29T10:49:15.330Z,46.20
2018-06-29T10:50:15.337Z,49.15
2018-06-29T10:51:15.343Z,47.20
2018-06-29T10:52:36.353Z,46.03
2018-06-29T10:53:15.344Z,47.78
2018-06-29T10:54:15.344Z,46.42
2018-06-29T10:55:15.351Z,49.05
2018-06-29T10:56:15.360Z,44.96
2018-06-29T10:57:15.359Z,43.91
2018-06-29T10:58:36.430Z,44.49
2018-06-29T10:59:15.383Z,43.43
2018-06-29T11:00:15.363Z,44.20
2018-06-29T11:01:15.372Z,44.01
2018-06-29T11:02:15.385Z,43.93
2018-06-29T11:03:15.375Z,44.90
2018-06-29T11:04:36.394Z,44.52
2018-06-29T11:05:15.389Z,45.71
2018-06-29T11:06:15.393Z,43.95
2018-06-29T11:07:15.392Z,45.71
2018-06-29T11:08:15.396Z,43.98
2018-06-29T11:09:15.394Z,42.80
2018-06-29T11:10:36.411Z,45.64
2018-06-29T11:11:15.404Z,42.61
2018-06-29T11:12:15.409Z,42.59
2018-06-29T11:13:15.408Z,44.93
2018-06-29T11:14:15.415Z,43.88
2018-06-29T11:15:15.422Z,44.37
2018-06-29T11:16:36.433Z,43.19
2018-06-29T11:17:15.427Z,42.22
2018-06-29T11:18:15.433Z,40.95
2018-06-29T11:19:15.433Z,42.90
2018-06-29T11:20:15.436Z,42.49
2018-06-29T11:21:15.439Z,42.22
2018-06-29T11:22:36.475Z,42.51
2018-06-29T11:23:15.446Z,42.90
2018-06-29T11:24:15.450Z,42.90
2018-06-29T11:25:15.455Z,42.02
2018-06-29T11:26:15.459Z,42.32
2018-06-29T11:27:15.576Z,41.25
2018-06-29T11:28:36.475Z,41.93
2018-06-29T11:29:15.465Z,42.32
2018-06-29T11:30:15.484Z,44.19
2018-06-29T11:31:15.489Z,42.12
2018-06-29T11:32:15.485Z,41.44
2018-06-29T11:33:15.492Z,41.27
2018-06-29T11:34:36.494Z,43.22
2018-06-29T11:35:15.489Z,43.92
2018-06-29T11:36:15.498Z,44.43
2018-06-29T11:37:15.502Z,40.41
2018-06-29T11:38:15.507Z,41.38
2018-06-29T11:39:15.507Z,40.21
2018-06-29T11:40:36.534Z,40.41
2018-06-29T11:41:15.517Z,40.89
2018-06-29T11:42:15.526Z,41.60
2018-06-29T11:43:15.532Z,41.41
2018-06-29T11:44:15.558Z,40.74
2018-06-29T11:45:15.542Z,40.64
2018-06-29T11:46:36.558Z,41.50
2018-06-29T11:47:15.558Z,41.28
2018-06-29T11:48:15.569Z,42.54
2018-06-29T11:49:15.568Z,42.32
2018-06-29T11:50:15.574Z,41.91
2018-06-29T11:51:15.582Z,42.18
2018-06-29T11:52:36.598Z,44.03
2018-06-29T11:53:15.633Z,45.03
2018-06-29T11:54:15.596Z,43.22
2018-06-29T11:55:15.602Z,42.14
2018-06-29T11:56:15.607Z,40.80
2018-06-29T11:57:15.614Z,40.89
2018-06-29T11:58:36.633Z,40.72
2018-06-29T11:59:15.625Z,40.33
2018-06-29T12:00:15.632Z,41.13
2018-06-29T12:01:15.637Z,40.95
2018-06-29T12:02:15.644Z,38.98
2018-06-29T12:03:15.650Z,39.37
2018-06-29T12:04:36.667Z,39.96
2018-06-29T12:05:15.664Z,40.55
2018-06-29T12:06:15.670Z,40.47
2018-06-29T12:07:15.705Z,39.18
2018-06-29T12:08:15.684Z,40.82
2018-06-29T12:09:15.688Z,40.72
2018-06-29T12:10:36.709Z,40.72
2018-06-29T12:11:15.706Z,39.45
2018-06-29T12:12:15.892Z,40.41
2018-06-29T12:13:15.717Z,39.55
2018-06-29T12:14:15.722Z,39.36
2018-06-29T12:15:15.726Z,40.72
2018-06-29T12:16:36.749Z,42.87
2018-06-29T12:17:15.746Z,42.16
2018-06-29T12:18:15.752Z,41.41
2018-06-29T12:19:15.756Z,40.43
2018-06-29T12:20:15.765Z,41.21
2018-06-29T12:21:15.766Z,41.42
2018-06-29T12:22:36.787Z,40.64
2018-06-29T12:23:15.842Z,41.25
2018-06-29T12:24:15.790Z,41.07
2018-06-29T12:25:15.793Z,39.41
2018-06-29T12:26:15.800Z,39.29
2018-06-29T12:27:15.810Z,40.19
2018-06-29T12:28:36.826Z,39.20
2018-06-29T12:29:15.822Z,40.55
2018-06-29T12:30:15.828Z,39.65
2018-06-29T12:31:15.833Z,40.70
2018-06-29T12:32:15.842Z,41.48
2018-06-29T12:33:15.847Z,40.11
2018-06-29T12:34:36.869Z,40.01
2018-06-29T12:35:15.866Z,41.19
2018-06-29T12:36:15.864Z,41.17
2018-06-29T12:37:15.872Z,41.73
2018-06-29T12:38:15.875Z,41.48
2018-06-29T12:39:15.884Z,41.31
2018-06-29T12:40:36.900Z,41.91
2018-06-29T12:41:15.894Z,40.27
2018-06-29T12:42:15.906Z,39.29
2018-06-29T12:43:15.907Z,38.98
2018-06-29T12:44:15.909Z,38.98
2018-06-29T12:45:15.917Z,39.86
2018-06-29T12:46:36.937Z,39.84
2018-06-29T12:47:15.929Z,40.31
2018-06-29T12:48:15.934Z,41.67
2018-06-29T12:49:15.947Z,40.78
2018-06-29T12:50:15.945Z,41.97
2018-06-29T12:51:15.952Z,40.33
2018-06-29T12:52:36.965Z,40.23